Pacific Solarelle — V7UB8 — position and weather

sailwx.info

Track history (hours):
 
Tides and Currents Weather Stations Pressure Air Temp Water Temp Dewpoint Dewpoint Depression Visibility Wind Speed Wind Dir Waves Ship Positions

Pacific Solarelle

Last reported at 2018-Feb-20 21:03 UTC. Time now 2018-Feb-21 21:25 UTC.
Position S 22°48' W 043°09'.

Length 180 m; draft 6.7 m.

Type: Tanker. MMSI: 538003925.

Date/timePositionNaut miles runAvg speedWind from/ knotsBaromVisibWave heightAir tempDewpointWater temp
2018-Feb-20 21:03S 22°48' W 043°09'0 0.1
2018-Feb-20 21:00S 22°48' W 043°09'0 0.9
2018-Feb-20 20:30S 22°49' W 043°09'5 9.2
2018-Feb-20 20:00S 22°53' W 043°09'510.1
2018-Feb-20 19:30S 22°58' W 043°08'4 8.4
2018-Feb-20 19:00S 23°02' W 043°06'4 8.0
2018-Feb-20 18:30S 23°04' W 043°02'5 9.4
2018-Feb-20 18:00S 23°07' W 042°59'0 0.9
2018-Feb-20 17:30S 23°08' W 042°58'0 0.9
2018-Feb-20 17:00S 23°08' W 042°58'0 0.4
2018-Feb-20 16:30S 23°08' W 042°58'2 4.4
2018-Feb-20 16:00S 23°07' W 042°60'5 9.4
2018-Feb-20 15:30S 23°06' W 043°05'0 0.6
2018-Feb-20 15:00S 23°06' W 043°05'1 1.1
2018-Feb-20 14:30S 23°06' W 043°04'0 0.8
2018-Feb-20 14:00S 23°06' W 043°04'0 0.7
2018-Feb-20 13:30S 23°06' W 043°03'0 0.7
2018-Feb-20 13:00S 23°07' W 043°03'0 0.7
2018-Feb-20 12:30S 23°07' W 043°03'0 0.7
2018-Feb-20 12:00S 23°07' W 043°02'0 0.5
2018-Feb-20 11:30S 23°07' W 043°02'1 1.2
2018-Feb-20 11:01S 23°08' W 043°02'3 6.4
2018-Feb-20 10:30S 23°11' W 043°03'1 2.1
2018-Feb-20 10:00S 23°12' W 043°04'0 0.4
2018-Feb-20 09:30S 23°11' W 043°04'0 0.5
2018-Feb-20 09:00S 23°11' W 043°03'0 0.4
2018-Feb-20 08:30S 23°11' W 043°03'0 0.4
2018-Feb-20 08:00S 23°11' W 043°03'0 0.5
2018-Feb-20 07:30S 23°11' W 043°03'0 0.5
2018-Feb-20 07:00S 23°10' W 043°03'0 0.4
2018-Feb-20 06:28S 23°10' W 043°03'0 0.5
2018-Feb-20 06:00S 23°10' W 043°03'0 0.5
2018-Feb-20 05:30S 23°10' W 043°03'0 0.5
2018-Feb-20 05:00S 23°10' W 043°02'0 0.5
2018-Feb-20 04:30S 23°09' W 043°02'0 0.6
2018-Feb-20 04:00S 23°09' W 043°02'0 0.5
2018-Feb-20 03:30S 23°09' W 043°02'0 0.7
2018-Feb-20 03:00S 23°09' W 043°02'0 0.7
2018-Feb-20 02:30S 23°08' W 043°02'0 0.7
2018-Feb-20 02:00S 23°08' W 043°02'0 0.6
2018-Feb-20 01:30S 23°08' W 043°02'0 0.3
2018-Feb-20 01:00S 23°08' W 043°02'3 5.5
2018-Feb-20 00:30S 23°10' W 043°02'4 7.2
2018-Feb-20 00:00S 23°14' W 043°03'1 1.3
2018-Feb-19 23:30S 23°13' W 043°04'1 1.8
2018-Feb-19 23:00S 23°12' W 043°04'1 1.5
2018-Feb-19 22:30S 23°11' W 043°03'0 0.8
2018-Feb-19 22:00S 23°11' W 043°03'0 0.9
2018-Feb-19 21:30S 23°11' W 043°02'0 0.9
2018-Feb-19 21:00S 23°11' W 043°02'1 2.7
2018-Feb-19 20:30S 23°09' W 043°02'3 6.9
2018-Feb-19 20:00S 23°08' W 043°06'0 0.7
2018-Feb-19 19:27S 23°08' W 043°05'0 0.6
2018-Feb-19 19:00S 23°08' W 043°05'0 0.7
2018-Feb-19 18:30S 23°09' W 043°05'0 0.7
2018-Feb-19 18:00S 23°09' W 043°04'0 0.7
2018-Feb-19 17:30S 23°09' W 043°04'0 0.7
2018-Feb-19 17:00S 23°09' W 043°04'0 0.6
2018-Feb-19 16:30S 23°09' W 043°04'0 0.6
2018-Feb-19 15:59S 23°10' W 043°04'0 0.5
2018-Feb-19 15:30S 23°10' W 043°03'0 0.5
2018-Feb-19 15:00S 23°10' W 043°03'0 0.4
2018-Feb-19 14:29S 23°10' W 043°03'0 0.3
2018-Feb-19 14:00S 23°10' W 043°03'0 0.2
2018-Feb-19 13:30S 23°10' W 043°03'0 0.2
2018-Feb-19 13:00S 23°10' W 043°03'0 0.1
2018-Feb-19 12:30S 23°10' W 043°03'0 0.1
2018-Feb-19 12:00S 23°10' W 043°03'0 0.1
2018-Feb-19 11:30S 23°10' W 043°03'0 0.0
2018-Feb-19 11:00S 23°10' W 043°03'0 0.1
2018-Feb-19 10:30S 23°10' W 043°03'0 0.1
2018-Feb-19 10:00S 23°10' W 043°03'0 0.1
2018-Feb-19 09:30S 23°10' W 043°02'0 0.1
2018-Feb-19 09:00S 23°10' W 043°02'0 0.2
2018-Feb-19 08:30S 23°10' W 043°02'0 0.1
2018-Feb-19 08:00S 23°10' W 043°02'0 0.0
2018-Feb-19 07:30S 23°10' W 043°02'0 0.1
2018-Feb-19 07:00S 23°10' W 043°02'0 0.1
2018-Feb-19 06:30S 23°10' W 043°02'0 0.1
2018-Feb-19 06:00S 23°10' W 043°02'0 0.1
2018-Feb-19 05:30S 23°10' W 043°02'0 0.1
2018-Feb-19 04:59S 23°10' W 043°02'0 0.1
2018-Feb-19 04:30S 23°11' W 043°02'0 0.1
2018-Feb-19 04:00S 23°11' W 043°02'0 0.1
2018-Feb-19 03:30S 23°11' W 043°02'0 0.0
2018-Feb-19 03:00S 23°11' W 043°02'0 0.1
2018-Feb-19 02:30S 23°11' W 043°02'0 0.1
2018-Feb-19 02:00S 23°11' W 043°02'0 0.1
2018-Feb-19 01:30S 23°11' W 043°02'0 0.1
2018-Feb-19 01:00S 23°10' W 043°02'0 0.1
2018-Feb-19 00:30S 23°10' W 043°02'0 0.2
2018-Feb-19 00:00S 23°10' W 043°02'0 0.2
2018-Feb-18 23:29S 23°10' W 043°02'0 0.2
2018-Feb-18 23:00S 23°10' W 043°02'0 0.3
2018-Feb-18 22:30S 23°10' W 043°02'0 0.3
2018-Feb-18 22:00S 23°10' W 043°02'0 0.4
2018-Feb-18 21:30S 23°10' W 043°01'0 0.1
2018-Feb-18 21:00S 23°10' W 043°01'0 0.3
2018-Feb-18 20:30S 23°10' W 043°01'0 0.4
2018-Feb-18 20:00S 23°10' W 043°01'0 0.4
2018-Feb-18 19:30S 23°10' W 043°02'0 0.5
2018-Feb-18 19:00S 23°10' W 043°02'0 0.6
2018-Feb-18 18:30S 23°11' W 043°02'0 0.5
2018-Feb-18 18:00S 23°11' W 043°02'0 0.4
2018-Feb-18 17:30S 23°11' W 043°02'0 0.4
2018-Feb-18 17:00S 23°11' W 043°03'0 0.3
2018-Feb-18 16:30S 23°11' W 043°03'0 0.3
2018-Feb-18 16:00S 23°11' W 043°03'0 0.4
2018-Feb-18 15:30S 23°11' W 043°03'0 0.4
2018-Feb-18 14:59S 23°11' W 043°03'0 0.2
2018-Feb-18 14:30S 23°11' W 043°03'0 0.2
2018-Feb-18 14:00S 23°11' W 043°03'0 0.2
2018-Feb-18 13:30S 23°11' W 043°04'0 0.3
2018-Feb-18 13:00S 23°11' W 043°04'0 0.3
2018-Feb-18 12:30S 23°11' W 043°04'0 0.3
2018-Feb-18 12:00S 23°11' W 043°04'0 0.3
2018-Feb-18 11:30S 23°10' W 043°04'0 0.3
2018-Feb-18 11:00S 23°10' W 043°04'0 0.3
2018-Feb-18 10:30S 23°10' W 043°04'0 0.3
2018-Feb-18 10:00S 23°10' W 043°04'0 0.2
2018-Feb-18 09:30S 23°10' W 043°04'0 0.3
2018-Feb-18 09:00S 23°10' W 043°04'0 0.3
2018-Feb-18 08:30S 23°10' W 043°04'0 0.4
2018-Feb-18 08:00S 23°10' W 043°03'0 0.3
2018-Feb-18 07:30S 23°09' W 043°03'0 0.2
2018-Feb-18 07:00S 23°09' W 043°03'0 0.4
2018-Feb-18 06:30S 23°09' W 043°03'0 0.5
2018-Feb-18 06:00S 23°09' W 043°03'0 0.6
2018-Feb-18 05:30S 23°09' W 043°02'0 0.7
2018-Feb-18 05:00S 23°10' W 043°02'0 0.8
2018-Feb-18 04:30S 23°10' W 043°02'0 0.8
2018-Feb-18 04:00S 23°10' W 043°01'1 1.9
2018-Feb-18 03:30S 23°09' W 043°01'2 4.5
2018-Feb-18 03:00S 23°07' W 043°02'2 4.5
2018-Feb-18 02:30S 23°05' W 043°04'1 1.1
2018-Feb-18 01:59S 23°05' W 043°04'1 1.1
2018-Feb-18 01:30S 23°05' W 043°03'1 1.0
2018-Feb-18 01:00S 23°05' W 043°02'0 0.9
2018-Feb-18 00:29S 23°05' W 043°02'0 0.9
2018-Feb-18 00:00S 23°05' W 043°01'1 1.0
2018-Feb-17 23:30S 23°05' W 043°01'1 1.0
2018-Feb-17 23:00S 23°05' W 043°00'0 1.0
2018-Feb-17 22:30S 23°05' W 042°60'1 1.0
2018-Feb-17 21:57S 23°05' W 042°59'0 0.9
2018-Feb-17 21:30S 23°05' W 042°59'0 0.9
2018-Feb-17 21:00S 23°05' W 042°58'0 0.9
2018-Feb-17 20:30S 23°05' W 042°58'0 0.9
2018-Feb-17 20:00S 23°05' W 042°57'0 0.9
2018-Feb-17 19:30S 23°05' W 042°57'0 0.8
2018-Feb-17 19:00S 23°05' W 042°57'0 0.8
2018-Feb-17 18:30S 23°06' W 042°56'0 0.8
2018-Feb-17 18:00S 23°06' W 042°56'0 0.7
2018-Feb-17 17:30S 23°06' W 042°56'0 0.6
2018-Feb-17 17:00S 23°07' W 042°56'0 0.5
2018-Feb-17 16:30S 23°07' W 042°56'0 0.5
2018-Feb-17 16:00S 23°07' W 042°56'0 0.5
2018-Feb-17 15:30S 23°07' W 042°56'0 0.5
2018-Feb-17 14:59S 23°08' W 042°56'0 0.6
2018-Feb-17 14:29S 23°08' W 042°57'0 0.5
2018-Feb-17 13:59S 23°08' W 042°57'0 0.5
2018-Feb-17 13:29S 23°08' W 042°57'0 0.6
2018-Feb-17 12:59S 23°09' W 042°57'0 0.6
2018-Feb-17 12:29S 23°09' W 042°57'0 0.7
2018-Feb-17 11:59S 23°09' W 042°58'0 0.6
2018-Feb-17 11:29S 23°09' W 042°58'0 0.5
2018-Feb-17 10:59S 23°09' W 042°58'0 0.6
2018-Feb-17 10:26S 23°09' W 042°59'0 0.7
2018-Feb-17 09:56S 23°09' W 042°59'0 0.6
2018-Feb-17 09:29S 23°09' W 042°59'0 0.5
2018-Feb-17 08:59S 23°09' W 042°60'0 0.4
2018-Feb-17 08:26S 23°09' W 042°60'0 0.3
2018-Feb-17 07:59S 23°09' W 043°00'0 0.3
2018-Feb-17 07:29S 23°09' W 043°00'0 0.3
2018-Feb-17 06:59S 23°09' W 043°00'0 0.2
2018-Feb-17 06:26S 23°09' W 043°00'0 0.2
2018-Feb-17 06:00S 23°09' W 043°01'0 0.3
2018-Feb-17 05:30S 23°09' W 043°01'0 0.4
2018-Feb-17 05:00S 23°09' W 043°01'0 0.6
2018-Feb-17 04:30S 23°10' W 043°01'2 3.2
2018-Feb-17 04:00S 23°08' W 042°60'3 6.0
2018-Feb-17 03:30S 23°05' W 042°59'2 3.7
2018-Feb-17 03:00S 23°04' W 042°58'0 0.7
2018-Feb-17 02:30S 23°04' W 042°58'0 0.7
2018-Feb-17 02:00S 23°04' W 042°58'0 0.6
2018-Feb-17 01:30S 23°04' W 042°57'0 0.6
2018-Feb-17 01:00S 23°04' W 042°57'0 0.7
2018-Feb-17 00:30S 23°05' W 042°57'0 0.8
2018-Feb-17 00:00S 23°05' W 042°57'0 0.8
2018-Feb-16 23:30S 23°05' W 042°57'0 0.8
2018-Feb-16 23:00S 23°06' W 042°57'0 0.8
2018-Feb-16 22:30S 23°06' W 042°57'0 0.4
2018-Feb-16 22:00S 23°06' W 042°57'1 1.9
2018-Feb-16 21:30S 23°06' W 042°56'510.1
2018-Feb-16 21:00S 23°05' W 042°50'611.3
2018-Feb-16 20:30S 23°06' W 042°44'911.7
2018-Feb-16 19:43S 23°07' W 042°35'  
Track history (hours):
 
Tides and Currents Weather Stations Pressure Air Temp Water Temp Dewpoint Dewpoint Depression Visibility Wind Speed Wind Dir Waves Ship Positions

Pacific Solarelle

Last reported at 2018-Feb-20 21:03 UTC. Time now 2018-Feb-21 21:25 UTC.
Position S 22°48' W 043°09'.

Length 180 m; draft 6.7 m.

Type: Tanker. MMSI: 538003925.

Date/timePositionNaut miles runAvg speedWind from/ knotsBaromVisibWave heightAir tempDewpointWater temp
2018-Feb-20 21:03S 22°48' W 043°09'0 0.1
2018-Feb-20 21:00S 22°48' W 043°09'0 0.9
2018-Feb-20 20:30S 22°49' W 043°09'5 9.2
2018-Feb-20 20:00S 22°53' W 043°09'510.1
2018-Feb-20 19:30S 22°58' W 043°08'4 8.4
2018-Feb-20 19:00S 23°02' W 043°06'4 8.0
2018-Feb-20 18:30S 23°04' W 043°02'5 9.4
2018-Feb-20 18:00S 23°07' W 042°59'0 0.9
2018-Feb-20 17:30S 23°08' W 042°58'0 0.9
2018-Feb-20 17:00S 23°08' W 042°58'0 0.4
2018-Feb-20 16:30S 23°08' W 042°58'2 4.4
2018-Feb-20 16:00S 23°07' W 042°60'5 9.4
2018-Feb-20 15:30S 23°06' W 043°05'0 0.6
2018-Feb-20 15:00S 23°06' W 043°05'1 1.1
2018-Feb-20 14:30S 23°06' W 043°04'0 0.8
2018-Feb-20 14:00S 23°06' W 043°04'0 0.7
2018-Feb-20 13:30S 23°06' W 043°03'0 0.7
2018-Feb-20 13:00S 23°07' W 043°03'0 0.7
2018-Feb-20 12:30S 23°07' W 043°03'0 0.7
2018-Feb-20 12:00S 23°07' W 043°02'0 0.5
2018-Feb-20 11:30S 23°07' W 043°02'1 1.2
2018-Feb-20 11:01S 23°08' W 043°02'3 6.4
2018-Feb-20 10:30S 23°11' W 043°03'1 2.1
2018-Feb-20 10:00S 23°12' W 043°04'0 0.4
2018-Feb-20 09:30S 23°11' W 043°04'0 0.5
2018-Feb-20 09:00S 23°11' W 043°03'0 0.4
2018-Feb-20 08:30S 23°11' W 043°03'0 0.4
2018-Feb-20 08:00S 23°11' W 043°03'0 0.5
2018-Feb-20 07:30S 23°11' W 043°03'0 0.5
2018-Feb-20 07:00S 23°10' W 043°03'0 0.4
2018-Feb-20 06:28S 23°10' W 043°03'0 0.5
2018-Feb-20 06:00S 23°10' W 043°03'0 0.5
2018-Feb-20 05:30S 23°10' W 043°03'0 0.5
2018-Feb-20 05:00S 23°10' W 043°02'0 0.5
2018-Feb-20 04:30S 23°09' W 043°02'0 0.6
2018-Feb-20 04:00S 23°09' W 043°02'0 0.5
2018-Feb-20 03:30S 23°09' W 043°02'0 0.7
2018-Feb-20 03:00S 23°09' W 043°02'0 0.7
2018-Feb-20 02:30S 23°08' W 043°02'0 0.7
2018-Feb-20 02:00S 23°08' W 043°02'0 0.6
2018-Feb-20 01:30S 23°08' W 043°02'0 0.3
2018-Feb-20 01:00S 23°08' W 043°02'3 5.5
2018-Feb-20 00:30S 23°10' W 043°02'4 7.2
2018-Feb-20 00:00S 23°14' W 043°03'1 1.3
2018-Feb-19 23:30S 23°13' W 043°04'1 1.8
2018-Feb-19 23:00S 23°12' W 043°04'1 1.5
2018-Feb-19 22:30S 23°11' W 043°03'0 0.8
2018-Feb-19 22:00S 23°11' W 043°03'0 0.9
2018-Feb-19 21:30S 23°11' W 043°02'0 0.9
2018-Feb-19 21:00S 23°11' W 043°02'1 2.7
2018-Feb-19 20:30S 23°09' W 043°02'3 6.9
2018-Feb-19 20:00S 23°08' W 043°06'0 0.7
2018-Feb-19 19:27S 23°08' W 043°05'0 0.6
2018-Feb-19 19:00S 23°08' W 043°05'0 0.7
2018-Feb-19 18:30S 23°09' W 043°05'0 0.7
2018-Feb-19 18:00S 23°09' W 043°04'0 0.7
2018-Feb-19 17:30S 23°09' W 043°04'0 0.7
2018-Feb-19 17:00S 23°09' W 043°04'0 0.6
2018-Feb-19 16:30S 23°09' W 043°04'0 0.6
2018-Feb-19 15:59S 23°10' W 043°04'0 0.5
2018-Feb-19 15:30S 23°10' W 043°03'0 0.5
2018-Feb-19 15:00S 23°10' W 043°03'0 0.4
2018-Feb-19 14:29S 23°10' W 043°03'0 0.3
2018-Feb-19 14:00S 23°10' W 043°03'0 0.2
2018-Feb-19 13:30S 23°10' W 043°03'0 0.2
2018-Feb-19 13:00S 23°10' W 043°03'0 0.1
2018-Feb-19 12:30S 23°10' W 043°03'0 0.1
2018-Feb-19 12:00S 23°10' W 043°03'0 0.1
2018-Feb-19 11:30S 23°10' W 043°03'0 0.0
2018-Feb-19 11:00S 23°10' W 043°03'0 0.1
2018-Feb-19 10:30S 23°10' W 043°03'0 0.1
2018-Feb-19 10:00S 23°10' W 043°03'0 0.1
2018-Feb-19 09:30S 23°10' W 043°02'0 0.1
2018-Feb-19 09:00S 23°10' W 043°02'0 0.2
2018-Feb-19 08:30S 23°10' W 043°02'0 0.1
2018-Feb-19 08:00S 23°10' W 043°02'0 0.0
2018-Feb-19 07:30S 23°10' W 043°02'0 0.1
2018-Feb-19 07:00S 23°10' W 043°02'0 0.1
2018-Feb-19 06:30S 23°10' W 043°02'0 0.1
2018-Feb-19 06:00S 23°10' W 043°02'0 0.1
2018-Feb-19 05:30S 23°10' W 043°02'0 0.1
2018-Feb-19 04:59S 23°10' W 043°02'0 0.1
2018-Feb-19 04:30S 23°11' W 043°02'0 0.1
2018-Feb-19 04:00S 23°11' W 043°02'0 0.1
2018-Feb-19 03:30S 23°11' W 043°02'0 0.0
2018-Feb-19 03:00S 23°11' W 043°02'0 0.1
2018-Feb-19 02:30S 23°11' W 043°02'0 0.1
2018-Feb-19 02:00S 23°11' W 043°02'0 0.1
2018-Feb-19 01:30S 23°11' W 043°02'0 0.1
2018-Feb-19 01:00S 23°10' W 043°02'0 0.1
2018-Feb-19 00:30S 23°10' W 043°02'0 0.2
2018-Feb-19 00:00S 23°10' W 043°02'0 0.2
2018-Feb-18 23:29S 23°10' W 043°02'0 0.2
2018-Feb-18 23:00S 23°10' W 043°02'0 0.3
2018-Feb-18 22:30S 23°10' W 043°02'0 0.3
2018-Feb-18 22:00S 23°10' W 043°02'0 0.4
2018-Feb-18 21:30S 23°10' W 043°01'0 0.1
2018-Feb-18 21:00S 23°10' W 043°01'0 0.3
2018-Feb-18 20:30S 23°10' W 043°01'0 0.4
2018-Feb-18 20:00S 23°10' W 043°01'0 0.4
2018-Feb-18 19:30S 23°10' W 043°02'0 0.5
2018-Feb-18 19:00S 23°10' W 043°02'0 0.6
2018-Feb-18 18:30S 23°11' W 043°02'0 0.5
2018-Feb-18 18:00S 23°11' W 043°02'0 0.4
2018-Feb-18 17:30S 23°11' W 043°02'0 0.4
2018-Feb-18 17:00S 23°11' W 043°03'0 0.3
2018-Feb-18 16:30S 23°11' W 043°03'0 0.3
2018-Feb-18 16:00S 23°11' W 043°03'0 0.4
2018-Feb-18 15:30S 23°11' W 043°03'0 0.4
2018-Feb-18 14:59S 23°11' W 043°03'0 0.2
2018-Feb-18 14:30S 23°11' W 043°03'0 0.2
2018-Feb-18 14:00S 23°11' W 043°03'0 0.2
2018-Feb-18 13:30S 23°11' W 043°04'0 0.3
2018-Feb-18 13:00S 23°11' W 043°04'0 0.3
2018-Feb-18 12:30S 23°11' W 043°04'0 0.3
2018-Feb-18 12:00S 23°11' W 043°04'0 0.3
2018-Feb-18 11:30S 23°10' W 043°04'0 0.3
2018-Feb-18 11:00S 23°10' W 043°04'0 0.3
2018-Feb-18 10:30S 23°10' W 043°04'0 0.3
2018-Feb-18 10:00S 23°10' W 043°04'0 0.2
2018-Feb-18 09:30S 23°10' W 043°04'0 0.3
2018-Feb-18 09:00S 23°10' W 043°04'0 0.3
2018-Feb-18 08:30S 23°10' W 043°04'0 0.4
2018-Feb-18 08:00S 23°10' W 043°03'0 0.3
2018-Feb-18 07:30S 23°09' W 043°03'0 0.2
2018-Feb-18 07:00S 23°09' W 043°03'0 0.4
2018-Feb-18 06:30S 23°09' W 043°03'0 0.5
2018-Feb-18 06:00S 23°09' W 043°03'0 0.6
2018-Feb-18 05:30S 23°09' W 043°02'0 0.7
2018-Feb-18 05:00S 23°10' W 043°02'0 0.8
2018-Feb-18 04:30S 23°10' W 043°02'0 0.8
2018-Feb-18 04:00S 23°10' W 043°01'1 1.9
2018-Feb-18 03:30S 23°09' W 043°01'2 4.5
2018-Feb-18 03:00S 23°07' W 043°02'2 4.5
2018-Feb-18 02:30S 23°05' W 043°04'1 1.1
2018-Feb-18 01:59S 23°05' W 043°04'1 1.1
2018-Feb-18 01:30S 23°05' W 043°03'1 1.0
2018-Feb-18 01:00S 23°05' W 043°02'0 0.9
2018-Feb-18 00:29S 23°05' W 043°02'0 0.9
2018-Feb-18 00:00S 23°05' W 043°01'1 1.0
2018-Feb-17 23:30S 23°05' W 043°01'1 1.0
2018-Feb-17 23:00S 23°05' W 043°00'0 1.0
2018-Feb-17 22:30S 23°05' W 042°60'1 1.0
2018-Feb-17 21:57S 23°05' W 042°59'0 0.9
2018-Feb-17 21:30S 23°05' W 042°59'0 0.9
2018-Feb-17 21:00S 23°05' W 042°58'0 0.9
2018-Feb-17 20:30S 23°05' W 042°58'0 0.9
2018-Feb-17 20:00S 23°05' W 042°57'0 0.9
2018-Feb-17 19:30S 23°05' W 042°57'0 0.8
2018-Feb-17 19:00S 23°05' W 042°57'0 0.8
2018-Feb-17 18:30S 23°06' W 042°56'0 0.8
2018-Feb-17 18:00S 23°06' W 042°56'0 0.7
2018-Feb-17 17:30S 23°06' W 042°56'0 0.6
2018-Feb-17 17:00S 23°07' W 042°56'0 0.5
2018-Feb-17 16:30S 23°07' W 042°56'0 0.5
2018-Feb-17 16:00S 23°07' W 042°56'0 0.5
2018-Feb-17 15:30S 23°07' W 042°56'0 0.5
2018-Feb-17 14:59S 23°08' W 042°56'0 0.6
2018-Feb-17 14:29S 23°08' W 042°57'0 0.5
2018-Feb-17 13:59S 23°08' W 042°57'0 0.5
2018-Feb-17 13:29S 23°08' W 042°57'0 0.6
2018-Feb-17 12:59S 23°09' W 042°57'0 0.6
2018-Feb-17 12:29S 23°09' W 042°57'0 0.7
2018-Feb-17 11:59S 23°09' W 042°58'0 0.6
2018-Feb-17 11:29S 23°09' W 042°58'0 0.5
2018-Feb-17 10:59S 23°09' W 042°58'0 0.6
2018-Feb-17 10:26S 23°09' W 042°59'0 0.7
2018-Feb-17 09:56S 23°09' W 042°59'0 0.6
2018-Feb-17 09:29S 23°09' W 042°59'0 0.5
2018-Feb-17 08:59S 23°09' W 042°60'0 0.4
2018-Feb-17 08:26S 23°09' W 042°60'0 0.3
2018-Feb-17 07:59S 23°09' W 043°00'0 0.3
2018-Feb-17 07:29S 23°09' W 043°00'0 0.3
2018-Feb-17 06:59S 23°09' W 043°00'0 0.2
2018-Feb-17 06:26S 23°09' W 043°00'0 0.2
2018-Feb-17 06:00S 23°09' W 043°01'0 0.3
2018-Feb-17 05:30S 23°09' W 043°01'0 0.4
2018-Feb-17 05:00S 23°09' W 043°01'0 0.6
2018-Feb-17 04:30S 23°10' W 043°01'2 3.2
2018-Feb-17 04:00S 23°08' W 042°60'3 6.0
2018-Feb-17 03:30S 23°05' W 042°59'2 3.7
2018-Feb-17 03:00S 23°04' W 042°58'0 0.7
2018-Feb-17 02:30S 23°04' W 042°58'0 0.7
2018-Feb-17 02:00S 23°04' W 042°58'0 0.6
2018-Feb-17 01:30S 23°04' W 042°57'0 0.6
2018-Feb-17 01:00S 23°04' W 042°57'0 0.7
2018-Feb-17 00:30S 23°05' W 042°57'0 0.8
2018-Feb-17 00:00S 23°05' W 042°57'0 0.8
2018-Feb-16 23:30S 23°05' W 042°57'0 0.8
2018-Feb-16 23:00S 23°06' W 042°57'0 0.8
2018-Feb-16 22:30S 23°06' W 042°57'0 0.4
2018-Feb-16 22:00S 23°06' W 042°57'1 1.9
2018-Feb-16 21:30S 23°06' W 042°56'510.1
2018-Feb-16 21:00S 23°05' W 042°50'611.3
2018-Feb-16 20:30S 23°06' W 042°44'911.7
2018-Feb-16 19:43S 23°07' W 042°35'  

Dump ship's entire track history